sensor_id;sensor_type;location;lat;lon;timestamp;P1;durP1;ratioP1;P2;durP2;ratioP2
30693;SDS011;17446;48.022;-1.740;2022-08-04T00:00:23;4.15;;;1.23;;
30693;SDS011;17446;48.022;-1.740;2022-08-04T00:08:15;2.40;;;1.20;;
30693;SDS011;17446;48.022;-1.740;2022-08-04T00:11:01;1.65;;;1.08;;
30693;SDS011;17446;48.022;-1.740;2022-08-04T00:13:29;1.45;;;1.02;;
30693;SDS011;17446;48.022;-1.740;2022-08-04T00:16:02;2.33;;;1.10;;
30693;SDS011;17446;48.022;-1.740;2022-08-04T00:18:33;1.30;;;1.10;;
30693;SDS011;17446;48.022;-1.740;2022-08-04T00:21:11;1.73;;;1.23;;
30693;SDS011;17446;48.022;-1.740;2022-08-04T00:23:39;7.18;;;1.27;;
30693;SDS011;17446;48.022;-1.740;2022-08-04T00:26:08;3.60;;;1.85;;
30693;SDS011;17446;48.022;-1.740;2022-08-04T00:28:34;4.60;;;1.08;;
30693;SDS011;17446;48.022;-1.740;2022-08-04T00:31:04;2.10;;;1.27;;
30693;SDS011;17446;48.022;-1.740;2022-08-04T00:33:32;3.95;;;1.10;;
30693;SDS011;17446;48.022;-1.740;2022-08-04T00:35:58;3.17;;;1.30;;
30693;SDS011;17446;48.022;-1.740;2022-08-04T00:38:25;6.70;;;1.40;;
30693;SDS011;17446;48.022;-1.740;2022-08-04T00:43:30;2.03;;;1.30;;
30693;SDS011;17446;48.022;-1.740;2022-08-04T01:00:23;2.63;;;1.30;;
30693;SDS011;17446;48.022;-1.740;2022-08-04T01:10:53;4.07;;;1.42;;
30693;SDS011;17446;48.022;-1.740;2022-08-04T01:16:15;3.85;;;1.65;;
30693;SDS011;17446;48.022;-1.740;2022-08-04T01:24:04;1.42;;;1.08;;
30693;SDS011;17446;48.022;-1.740;2022-08-04T01:29:44;1.35;;;0.73;;
30693;SDS011;17446;48.022;-1.740;2022-08-04T01:32:23;1.63;;;0.70;;
30693;SDS011;17446;48.022;-1.740;2022-08-04T01:35:00;1.05;;;0.82;;
30693;SDS011;17446;48.022;-1.740;2022-08-04T01:38:00;0.80;;;0.80;;
30693;SDS011;17446;48.022;-1.740;2022-08-04T01:40:46;0.70;;;0.70;;
30693;SDS011;17446;48.022;-1.740;2022-08-04T01:43:15;0.63;;;0.60;;
30693;SDS011;17446;48.022;-1.740;2022-08-04T01:45:41;0.68;;;0.60;;
30693;SDS011;17446;48.022;-1.740;2022-08-04T01:48:13;2.05;;;0.75;;
30693;SDS011;17446;48.022;-1.740;2022-08-04T01:50:40;0.65;;;0.55;;
30693;SDS011;17446;48.022;-1.740;2022-08-04T01:53:08;0.50;;;0.50;;
30693;SDS011;17446;48.022;-1.740;2022-08-04T01:55:34;0.85;;;0.50;;
30693;SDS011;17446;48.022;-1.740;2022-08-04T01:58:02;0.70;;;0.60;;
30693;SDS011;17446;48.022;-1.740;2022-08-04T02:00:29;0.40;;;0.40;;
30693;SDS011;17446;48.022;-1.740;2022-08-04T02:02:55;0.75;;;0.50;;
30693;SDS011;17446;48.022;-1.740;2022-08-04T02:05:25;0.55;;;0.40;;
30693;SDS011;17446;48.022;-1.740;2022-08-04T02:10:56;1.90;;;0.82;;
30693;SDS011;17446;48.022;-1.740;2022-08-04T02:13:47;1.05;;;0.80;;
30693;SDS011;17446;48.022;-1.740;2022-08-04T02:16:23;0.77;;;0.60;;
30693;SDS011;17446;48.022;-1.740;2022-08-04T02:21:45;0.98;;;0.57;;
30693;SDS011;17446;48.022;-1.740;2022-08-04T02:24:15;0.63;;;0.50;;
30693;SDS011;17446;48.022;-1.740;2022-08-04T02:26:46;0.82;;;0.70;;
30693;SDS011;17446;48.022;-1.740;2022-08-04T02:31:48;1.35;;;0.60;;
30693;SDS011;17446;48.022;-1.740;2022-08-04T02:36:56;1.38;;;0.80;;
30693;SDS011;17446;48.022;-1.740;2022-08-04T02:39:23;2.30;;;0.85;;
30693;SDS011;17446;48.022;-1.740;2022-08-04T02:41:55;1.50;;;0.82;;
30693;SDS011;17446;48.022;-1.740;2022-08-04T02:44:24;2.10;;;1.52;;
30693;SDS011;17446;48.022;-1.740;2022-08-04T02:46:52;2.30;;;2.00;;
30693;SDS011;17446;48.022;-1.740;2022-08-04T02:49:20;3.28;;;2.40;;
30693;SDS011;17446;48.022;-1.740;2022-08-04T02:51:47;4.32;;;2.67;;
30693;SDS011;17446;48.022;-1.740;2022-08-04T02:54:16;4.63;;;3.20;;
30693;SDS011;17446;48.022;-1.740;2022-08-04T02:56:43;6.93;;;3.58;;
30693;SDS011;17446;48.022;-1.740;2022-08-04T02:59:11;7.63;;;3.40;;
30693;SDS011;17446;48.022;-1.740;2022-08-04T03:01:38;8.75;;;4.00;;
30693;SDS011;17446;48.022;-1.740;2022-08-04T03:04:07;7.97;;;4.13;;
30693;SDS011;17446;48.022;-1.740;2022-08-04T03:21:38;8.75;;;3.83;;
30693;SDS011;17446;48.022;-1.740;2022-08-04T03:38:39;9.50;;;3.35;;
30693;SDS011;17446;48.022;-1.740;2022-08-04T03:41:26;5.18;;;3.47;;
30693;SDS011;17446;48.022;-1.740;2022-08-04T03:44:28;8.60;;;3.67;;
30693;SDS011;17446;48.022;-1.740;2022-08-04T03:47:23;4.97;;;2.47;;
30693;SDS011;17446;48.022;-1.740;2022-08-04T03:56:15;9.27;;;3.28;;
30693;SDS011;17446;48.022;-1.740;2022-08-04T04:13:14;6.63;;;3.63;;
30693;SDS011;17446;48.022;-1.740;2022-08-04T04:30:03;8.20;;;3.92;;
30693;SDS011;17446;48.022;-1.740;2022-08-04T04:32:35;9.27;;;3.08;;
30693;SDS011;17446;48.022;-1.740;2022-08-04T04:38:46;7.85;;;3.30;;
30693;SDS011;17446;48.022;-1.740;2022-08-04T04:46:11;11.65;;;3.60;;
30693;SDS011;17446;48.022;-1.740;2022-08-04T04:59:37;6.75;;;2.92;;
30693;SDS011;17446;48.022;-1.740;2022-08-04T05:13:31;7.88;;;2.88;;
30693;SDS011;17446;48.022;-1.740;2022-08-04T05:15:59;10.90;;;3.30;;
30693;SDS011;17446;48.022;-1.740;2022-08-04T05:18:33;8.65;;;3.22;;
30693;SDS011;17446;48.022;-1.740;2022-08-04T05:23:58;13.82;;;4.03;;
30693;SDS011;17446;48.022;-1.740;2022-08-04T05:26:29;10.25;;;4.68;;
30693;SDS011;17446;48.022;-1.740;2022-08-04T05:28:57;9.30;;;3.55;;
30693;SDS011;17446;48.022;-1.740;2022-08-04T05:31:28;18.10;;;3.85;;
30693;SDS011;17446;48.022;-1.740;2022-08-04T05:34:04;7.38;;;2.67;;
30693;SDS011;17446;48.022;-1.740;2022-08-04T05:36:35;12.48;;;3.13;;
30693;SDS011;17446;48.022;-1.740;2022-08-04T05:39:14;9.63;;;3.53;;
30693;SDS011;17446;48.022;-1.740;2022-08-04T05:41:46;6.07;;;2.78;;
30693;SDS011;17446;48.022;-1.740;2022-08-04T05:44:15;8.98;;;3.13;;
30693;SDS011;17446;48.022;-1.740;2022-08-04T05:46:42;7.80;;;3.03;;
30693;SDS011;17446;48.022;-1.740;2022-08-04T05:49:11;13.32;;;3.40;;
30693;SDS011;17446;48.022;-1.740;2022-08-04T05:51:37;12.95;;;3.38;;
30693;SDS011;17446;48.022;-1.740;2022-08-04T05:54:04;10.63;;;2.67;;
30693;SDS011;17446;48.022;-1.740;2022-08-04T05:56:31;9.52;;;2.92;;
30693;SDS011;17446;48.022;-1.740;2022-08-04T05:58:59;11.27;;;3.08;;
30693;SDS011;17446;48.022;-1.740;2022-08-04T06:01:27;12.07;;;3.22;;
30693;SDS011;17446;48.022;-1.740;2022-08-04T06:03:55;12.13;;;3.42;;
30693;SDS011;17446;48.022;-1.740;2022-08-04T06:06:22;11.82;;;3.47;;
30693;SDS011;17446;48.022;-1.740;2022-08-04T06:08:49;9.25;;;4.07;;
30693;SDS011;17446;48.022;-1.740;2022-08-04T06:11:15;13.10;;;3.40;;
30693;SDS011;17446;48.022;-1.740;2022-08-04T06:13:49;11.73;;;3.15;;
30693;SDS011;17446;48.022;-1.740;2022-08-04T06:16:20;12.75;;;3.05;;
30693;SDS011;17446;48.022;-1.740;2022-08-04T06:18:48;16.38;;;3.28;;
30693;SDS011;17446;48.022;-1.740;2022-08-04T06:21:17;13.38;;;3.25;;
30693;SDS011;17446;48.022;-1.740;2022-08-04T06:23:45;8.65;;;2.67;;
30693;SDS011;17446;48.022;-1.740;2022-08-04T06:26:12;8.90;;;2.90;;
30693;SDS011;17446;48.022;-1.740;2022-08-04T06:28:44;10.48;;;2.95;;
30693;SDS011;17446;48.022;-1.740;2022-08-04T06:31:15;13.05;;;3.05;;
30693;SDS011;17446;48.022;-1.740;2022-08-04T06:33:57;11.23;;;2.80;;
30693;SDS011;17446;48.022;-1.740;2022-08-04T06:36:26;13.13;;;2.65;;
30693;SDS011;17446;48.022;-1.740;2022-08-04T06:38:55;8.05;;;2.90;;
30693;SDS011;17446;48.022;-1.740;2022-08-04T06:41:22;11.00;;;2.90;;
30693;SDS011;17446;48.022;-1.740;2022-08-04T06:43:48;8.27;;;2.85;;
30693;SDS011;17446;48.022;-1.740;2022-08-04T06:46:15;12.48;;;2.92;;
30693;SDS011;17446;48.022;-1.740;2022-08-04T06:48:42;13.80;;;2.97;;
30693;SDS011;17446;48.022;-1.740;2022-08-04T06:51:09;8.55;;;2.72;;
30693;SDS011;17446;48.022;-1.740;2022-08-04T06:53:38;13.65;;;2.67;;
30693;SDS011;17446;48.022;-1.740;2022-08-04T06:56:03;11.65;;;3.08;;
30693;SDS011;17446;48.022;-1.740;2022-08-04T06:58:29;13.07;;;2.85;;
30693;SDS011;17446;48.022;-1.740;2022-08-04T07:00:57;11.20;;;2.65;;
30693;SDS011;17446;48.022;-1.740;2022-08-04T07:03:26;7.97;;;2.75;;
30693;SDS011;17446;48.022;-1.740;2022-08-04T07:05:52;8.18;;;2.58;;
30693;SDS011;17446;48.022;-1.740;2022-08-04T07:08:18;11.77;;;2.30;;
30693;SDS011;17446;48.022;-1.740;2022-08-04T07:10:45;9.70;;;2.28;;
30693;SDS011;17446;48.022;-1.740;2022-08-04T07:13:10;10.32;;;3.20;;
30693;SDS011;17446;48.022;-1.740;2022-08-04T07:15:38;12.23;;;2.75;;
30693;SDS011;17446;48.022;-1.740;2022-08-04T07:18:07;10.35;;;3.03;;
30693;SDS011;17446;48.022;-1.740;2022-08-04T07:20:33;11.20;;;3.05;;
30693;SDS011;17446;48.022;-1.740;2022-08-04T07:22:59;11.07;;;3.42;;
30693;SDS011;17446;48.022;-1.740;2022-08-04T07:25:26;9.10;;;2.50;;
30693;SDS011;17446;48.022;-1.740;2022-08-04T07:27:52;8.75;;;2.25;;
30693;SDS011;17446;48.022;-1.740;2022-08-04T07:30:18;11.77;;;3.00;;
30693;SDS011;17446;48.022;-1.740;2022-08-04T07:32:44;10.50;;;2.42;;
30693;SDS011;17446;48.022;-1.740;2022-08-04T07:35:11;9.15;;;2.50;;
30693;SDS011;17446;48.022;-1.740;2022-08-04T07:37:37;6.45;;;1.98;;
30693;SDS011;17446;48.022;-1.740;2022-08-04T07:40:03;9.43;;;2.70;;
30693;SDS011;17446;48.022;-1.740;2022-08-04T07:42:30;6.40;;;2.53;;
30693;SDS011;17446;48.022;-1.740;2022-08-04T07:44:55;10.95;;;2.17;;
30693;SDS011;17446;48.022;-1.740;2022-08-04T07:47:22;9.95;;;2.50;;
30693;SDS011;17446;48.022;-1.740;2022-08-04T07:49:48;11.75;;;2.50;;
30693;SDS011;17446;48.022;-1.740;2022-08-04T07:52:14;6.78;;;2.35;;
30693;SDS011;17446;48.022;-1.740;2022-08-04T07:54:40;11.40;;;2.67;;
30693;SDS011;17446;48.022;-1.740;2022-08-04T07:57:06;9.35;;;2.78;;
30693;SDS011;17446;48.022;-1.740;2022-08-04T07:59:32;10.35;;;2.80;;
30693;SDS011;17446;48.022;-1.740;2022-08-04T08:02:00;15.15;;;2.90;;
30693;SDS011;17446;48.022;-1.740;2022-08-04T08:04:26;8.80;;;2.22;;
30693;SDS011;17446;48.022;-1.740;2022-08-04T08:06:53;4.15;;;2.15;;
30693;SDS011;17446;48.022;-1.740;2022-08-04T08:09:18;9.93;;;2.45;;
30693;SDS011;17446;48.022;-1.740;2022-08-04T08:11:49;9.20;;;2.28;;
30693;SDS011;17446;48.022;-1.740;2022-08-04T08:14:16;10.80;;;1.98;;
30693;SDS011;17446;48.022;-1.740;2022-08-04T08:16:44;8.73;;;2.13;;
30693;SDS011;17446;48.022;-1.740;2022-08-04T08:19:10;12.05;;;2.33;;
30693;SDS011;17446;48.022;-1.740;2022-08-04T08:21:36;6.30;;;1.98;;
30693;SDS011;17446;48.022;-1.740;2022-08-04T08:24:03;8.43;;;2.15;;
30693;SDS011;17446;48.022;-1.740;2022-08-04T08:26:29;6.40;;;1.70;;
30693;SDS011;17446;48.022;-1.740;2022-08-04T08:28:55;8.38;;;2.42;;
30693;SDS011;17446;48.022;-1.740;2022-08-04T08:31:21;7.70;;;2.42;;
30693;SDS011;17446;48.022;-1.740;2022-08-04T08:33:47;10.20;;;2.78;;
30693;SDS011;17446;48.022;-1.740;2022-08-04T08:50:32;7.05;;;2.08;;
30693;SDS011;17446;48.022;-1.740;2022-08-04T08:58:56;7.78;;;2.05;;
30693;SDS011;17446;48.022;-1.740;2022-08-04T09:04:43;6.40;;;1.70;;
30693;SDS011;17446;48.022;-1.740;2022-08-04T09:12:58;7.40;;;1.70;;
30693;SDS011;17446;48.022;-1.740;2022-08-04T09:16:03;5.57;;;1.50;;
30693;SDS011;17446;48.022;-1.740;2022-08-04T09:21:52;7.00;;;1.73;;
30693;SDS011;17446;48.022;-1.740;2022-08-04T09:24:34;8.73;;;1.73;;
30693;SDS011;17446;48.022;-1.740;2022-08-04T09:27:30;5.70;;;1.90;;
30693;SDS011;17446;48.022;-1.740;2022-08-04T09:30:09;9.85;;;1.98;;
30693;SDS011;17446;48.022;-1.740;2022-08-04T09:40:45;6.38;;;1.65;;
30693;SDS011;17446;48.022;-1.740;2022-08-04T09:46:16;5.13;;;1.88;;
30693;SDS011;17446;48.022;-1.740;2022-08-04T09:48:58;7.70;;;2.08;;
30693;SDS011;17446;48.022;-1.740;2022-08-04T09:56:57;5.68;;;1.85;;
30693;SDS011;17446;48.022;-1.740;2022-08-04T10:02:33;7.18;;;1.52;;
30693;SDS011;17446;48.022;-1.740;2022-08-04T10:07:44;5.45;;;1.52;;
30693;SDS011;17446;48.022;-1.740;2022-08-04T10:13:16;7.75;;;1.30;;
30693;SDS011;17446;48.022;-1.740;2022-08-04T10:18:37;7.85;;;1.45;;
30693;SDS011;17446;48.022;-1.740;2022-08-04T10:29:40;5.95;;;1.42;;
30693;SDS011;17446;48.022;-1.740;2022-08-04T10:32:11;6.60;;;1.40;;
30693;SDS011;17446;48.022;-1.740;2022-08-04T10:34:47;4.70;;;1.40;;
30693;SDS011;17446;48.022;-1.740;2022-08-04T10:37:23;9.02;;;1.60;;
30693;SDS011;17446;48.022;-1.740;2022-08-04T10:39:54;3.03;;;0.90;;
30693;SDS011;17446;48.022;-1.740;2022-08-04T10:45:51;2.72;;;1.00;;
30693;SDS011;17446;48.022;-1.740;2022-08-04T10:48:32;6.50;;;1.58;;
30693;SDS011;17446;48.022;-1.740;2022-08-04T10:51:08;3.63;;;1.50;;
30693;SDS011;17446;48.022;-1.740;2022-08-04T10:53:42;4.82;;;1.27;;
30693;SDS011;17446;48.022;-1.740;2022-08-04T10:56:14;5.70;;;1.42;;
30693;SDS011;17446;48.022;-1.740;2022-08-04T10:58:49;4.20;;;1.10;;
30693;SDS011;17446;48.022;-1.740;2022-08-04T11:01:23;4.10;;;1.05;;
30693;SDS011;17446;48.022;-1.740;2022-08-04T11:03:57;3.78;;;1.13;;
30693;SDS011;17446;48.022;-1.740;2022-08-04T11:08:54;9.98;;;1.63;;
30693;SDS011;17446;48.022;-1.740;2022-08-04T11:11:30;2.80;;;1.25;;
30693;SDS011;17446;48.022;-1.740;2022-08-04T11:14:02;4.82;;;1.20;;
30693;SDS011;17446;48.022;-1.740;2022-08-04T11:16:53;5.05;;;1.20;;
30693;SDS011;17446;48.022;-1.740;2022-08-04T11:19:28;6.47;;;1.65;;
30693;SDS011;17446;48.022;-1.740;2022-08-04T11:21:55;7.15;;;1.98;;
30693;SDS011;17446;48.022;-1.740;2022-08-04T11:27:29;2.47;;;0.93;;
30693;SDS011;17446;48.022;-1.740;2022-08-04T11:30:17;6.65;;;1.33;;
30693;SDS011;17446;48.022;-1.740;2022-08-04T11:35:43;4.50;;;1.63;;
30693;SDS011;17446;48.022;-1.740;2022-08-04T11:40:59;2.17;;;1.13;;
30693;SDS011;17446;48.022;-1.740;2022-08-04T11:43:34;3.28;;;1.17;;
30693;SDS011;17446;48.022;-1.740;2022-08-04T11:46:07;3.85;;;1.10;;
30693;SDS011;17446;48.022;-1.740;2022-08-04T11:48:44;3.05;;;1.20;;
30693;SDS011;17446;48.022;-1.740;2022-08-04T11:51:17;3.88;;;1.33;;
30693;SDS011;17446;48.022;-1.740;2022-08-04T11:53:43;6.93;;;1.38;;
30693;SDS011;17446;48.022;-1.740;2022-08-04T11:56:12;3.40;;;1.20;;
30693;SDS011;17446;48.022;-1.740;2022-08-04T11:58:39;4.80;;;1.27;;
30693;SDS011;17446;48.022;-1.740;2022-08-04T12:14:54;5.30;;;1.30;;
30693;SDS011;17446;48.022;-1.740;2022-08-04T12:18:26;5.78;;;1.60;;
30693;SDS011;17446;48.022;-1.740;2022-08-04T12:20:56;3.90;;;1.30;;
30693;SDS011;17446;48.022;-1.740;2022-08-04T12:24:26;4.38;;;1.23;;
30693;SDS011;17446;48.022;-1.740;2022-08-04T12:26:23;7.35;;;1.15;;
30693;SDS011;17446;48.022;-1.740;2022-08-04T12:28:59;5.85;;;1.30;;
30693;SDS011;17446;48.022;-1.740;2022-08-04T12:31:26;5.72;;;1.73;;
30693;SDS011;17446;48.022;-1.740;2022-08-04T12:36:36;4.15;;;1.40;;
30693;SDS011;17446;48.022;-1.740;2022-08-04T12:39:10;7.00;;;1.48;;
30693;SDS011;17446;48.022;-1.740;2022-08-04T12:42:22;4.57;;;1.38;;
30693;SDS011;17446;48.022;-1.740;2022-08-04T12:44:36;2.70;;;0.88;;
30693;SDS011;17446;48.022;-1.740;2022-08-04T12:47:08;4.95;;;1.33;;
30693;SDS011;17446;48.022;-1.740;2022-08-04T12:49:36;2.72;;;1.20;;
30693;SDS011;17446;48.022;-1.740;2022-08-04T12:52:06;6.30;;;1.73;;
30693;SDS011;17446;48.022;-1.740;2022-08-04T12:54:33;3.42;;;1.17;;
30693;SDS011;17446;48.022;-1.740;2022-08-04T12:57:03;3.45;;;0.93;;
30693;SDS011;17446;48.022;-1.740;2022-08-04T12:59:36;2.78;;;1.67;;
30693;SDS011;17446;48.022;-1.740;2022-08-04T13:02:30;3.35;;;1.27;;
30693;SDS011;17446;48.022;-1.740;2022-08-04T13:04:58;6.50;;;1.42;;
30693;SDS011;17446;48.022;-1.740;2022-08-04T13:07:27;5.97;;;1.67;;
30693;SDS011;17446;48.022;-1.740;2022-08-04T13:10:00;2.50;;;1.00;;
30693;SDS011;17446;48.022;-1.740;2022-08-04T13:12:35;6.53;;;1.30;;
30693;SDS011;17446;48.022;-1.740;2022-08-04T13:15:07;11.63;;;1.80;;
30693;SDS011;17446;48.022;-1.740;2022-08-04T13:20:24;3.85;;;1.35;;
30693;SDS011;17446;48.022;-1.740;2022-08-04T13:22:58;3.38;;;1.50;;
30693;SDS011;17446;48.022;-1.740;2022-08-04T13:25:32;7.32;;;1.60;;
30693;SDS011;17446;48.022;-1.740;2022-08-04T13:28:00;4.13;;;1.23;;
30693;SDS011;17446;48.022;-1.740;2022-08-04T13:30:27;2.95;;;1.27;;
30693;SDS011;17446;48.022;-1.740;2022-08-04T13:32:56;4.60;;;1.27;;
30693;SDS011;17446;48.022;-1.740;2022-08-04T13:35:26;5.68;;;1.30;;
30693;SDS011;17446;48.022;-1.740;2022-08-04T13:37:53;1.98;;;1.30;;
30693;SDS011;17446;48.022;-1.740;2022-08-04T13:40:21;9.63;;;2.03;;
30693;SDS011;17446;48.022;-1.740;2022-08-04T13:42:50;9.98;;;2.47;;
30693;SDS011;17446;48.022;-1.740;2022-08-04T13:45:20;5.68;;;1.55;;
30693;SDS011;17446;48.022;-1.740;2022-08-04T13:47:48;7.07;;;1.77;;
30693;SDS011;17446;48.022;-1.740;2022-08-04T13:52:43;6.20;;;1.58;;
30693;SDS011;17446;48.022;-1.740;2022-08-04T13:57:46;7.03;;;1.77;;
30693;SDS011;17446;48.022;-1.740;2022-08-04T14:00:16;7.03;;;1.90;;
30693;SDS011;17446;48.022;-1.740;2022-08-04T14:02:44;5.35;;;1.92;;
30693;SDS011;17446;48.022;-1.740;2022-08-04T14:05:14;6.97;;;1.90;;
30693;SDS011;17446;48.022;-1.740;2022-08-04T14:10:23;14.70;;;2.05;;
30693;SDS011;17446;48.022;-1.740;2022-08-04T14:12:49;4.38;;;2.03;;
30693;SDS011;17446;48.022;-1.740;2022-08-04T14:15:32;6.38;;;1.83;;
30693;SDS011;17446;48.022;-1.740;2022-08-04T14:18:16;6.15;;;1.88;;
30693;SDS011;17446;48.022;-1.740;2022-08-04T14:20:59;8.75;;;1.83;;
30693;SDS011;17446;48.022;-1.740;2022-08-04T14:23:29;6.13;;;2.03;;
30693;SDS011;17446;48.022;-1.740;2022-08-04T14:26:14;11.45;;;1.85;;
30693;SDS011;17446;48.022;-1.740;2022-08-04T14:28:53;10.02;;;2.08;;
30693;SDS011;17446;48.022;-1.740;2022-08-04T14:31:23;5.40;;;1.73;;
30693;SDS011;17446;48.022;-1.740;2022-08-04T14:33:51;5.80;;;1.85;;
30693;SDS011;17446;48.022;-1.740;2022-08-04T14:36:18;6.70;;;1.85;;
30693;SDS011;17446;48.022;-1.740;2022-08-04T14:38:54;5.40;;;1.92;;
30693;SDS011;17446;48.022;-1.740;2022-08-04T14:41:25;10.88;;;1.90;;
30693;SDS011;17446;48.022;-1.740;2022-08-04T14:43:53;7.95;;;2.00;;
30693;SDS011;17446;48.022;-1.740;2022-08-04T14:46:21;13.50;;;2.53;;
30693;SDS011;17446;48.022;-1.740;2022-08-04T14:48:59;8.60;;;2.42;;
30693;SDS011;17446;48.022;-1.740;2022-08-04T14:51:33;6.45;;;1.50;;
30693;SDS011;17446;48.022;-1.740;2022-08-04T14:54:00;6.47;;;1.73;;
30693;SDS011;17446;48.022;-1.740;2022-08-04T14:56:26;6.82;;;1.90;;
30693;SDS011;17446;48.022;-1.740;2022-08-04T14:59:02;7.50;;;1.58;;
30693;SDS011;17446;48.022;-1.740;2022-08-04T15:01:35;8.98;;;2.17;;
30693;SDS011;17446;48.022;-1.740;2022-08-04T15:04:02;4.63;;;1.70;;
30693;SDS011;17446;48.022;-1.740;2022-08-04T15:06:29;5.15;;;1.67;;
30693;SDS011;17446;48.022;-1.740;2022-08-04T15:08:57;8.25;;;1.38;;
30693;SDS011;17446;48.022;-1.740;2022-08-04T15:11:25;6.90;;;1.67;;
30693;SDS011;17446;48.022;-1.740;2022-08-04T15:13:51;7.13;;;2.10;;
30693;SDS011;17446;48.022;-1.740;2022-08-04T15:16:18;6.70;;;2.40;;
30693;SDS011;17446;48.022;-1.740;2022-08-04T15:18:44;7.68;;;2.40;;
30693;SDS011;17446;48.022;-1.740;2022-08-04T15:21:11;6.80;;;1.48;;
30693;SDS011;17446;48.022;-1.740;2022-08-04T15:23:38;6.70;;;1.92;;
30693;SDS011;17446;48.022;-1.740;2022-08-04T15:26:04;6.80;;;1.30;;
30693;SDS011;17446;48.022;-1.740;2022-08-04T15:28:32;7.13;;;1.60;;
30693;SDS011;17446;48.022;-1.740;2022-08-04T15:31:02;6.28;;;1.55;;
30693;SDS011;17446;48.022;-1.740;2022-08-04T15:33:30;14.13;;;2.22;;
30693;SDS011;17446;48.022;-1.740;2022-08-04T15:39:04;5.70;;;1.60;;
30693;SDS011;17446;48.022;-1.740;2022-08-04T15:47:27;6.18;;;1.52;;
30693;SDS011;17446;48.022;-1.740;2022-08-04T15:50:02;6.80;;;1.50;;
30693;SDS011;17446;48.022;-1.740;2022-08-04T15:52:28;3.90;;;1.17;;
30693;SDS011;17446;48.022;-1.740;2022-08-04T15:55:28;3.63;;;1.35;;
30693;SDS011;17446;48.022;-1.740;2022-08-04T15:58:04;5.47;;;1.58;;
30693;SDS011;17446;48.022;-1.740;2022-08-04T16:14:07;6.63;;;1.42;;
30693;SDS011;17446;48.022;-1.740;2022-08-04T16:19:06;5.13;;;1.25;;
30693;SDS011;17446;48.022;-1.740;2022-08-04T16:21:35;6.50;;;1.38;;
30693;SDS011;17446;48.022;-1.740;2022-08-04T16:24:19;5.53;;;1.40;;
30693;SDS011;17446;48.022;-1.740;2022-08-04T16:26:53;4.55;;;1.38;;
30693;SDS011;17446;48.022;-1.740;2022-08-04T16:32:09;3.05;;;0.90;;
30693;SDS011;17446;48.022;-1.740;2022-08-04T16:34:51;7.07;;;0.98;;
30693;SDS011;17446;48.022;-1.740;2022-08-04T16:42:52;6.53;;;0.88;;
30693;SDS011;17446;48.022;-1.740;2022-08-04T16:45:22;4.70;;;0.98;;
30693;SDS011;17446;48.022;-1.740;2022-08-04T16:48:23;4.55;;;1.05;;
30693;SDS011;17446;48.022;-1.740;2022-08-04T16:51:06;4.22;;;1.15;;
30693;SDS011;17446;48.022;-1.740;2022-08-04T16:53:42;4.25;;;0.88;;
30693;SDS011;17446;48.022;-1.740;2022-08-04T16:56:11;6.53;;;1.20;;
30693;SDS011;17446;48.022;-1.740;2022-08-04T16:58:38;4.32;;;1.25;;
30693;SDS011;17446;48.022;-1.740;2022-08-04T17:01:05;5.03;;;0.82;;
30693;SDS011;17446;48.022;-1.740;2022-08-04T17:03:40;2.78;;;0.80;;
30693;SDS011;17446;48.022;-1.740;2022-08-04T17:06:13;2.67;;;1.00;;
30693;SDS011;17446;48.022;-1.740;2022-08-04T17:08:39;4.10;;;0.82;;
30693;SDS011;17446;48.022;-1.740;2022-08-04T17:11:05;5.55;;;1.38;;
30693;SDS011;17446;48.022;-1.740;2022-08-04T17:13:36;7.03;;;1.10;;
30693;SDS011;17446;48.022;-1.740;2022-08-04T17:16:05;0.60;;;0.50;;
30693;SDS011;17446;48.022;-1.740;2022-08-04T17:18:34;5.05;;;0.90;;
30693;SDS011;17446;48.022;-1.740;2022-08-04T17:21:06;2.20;;;0.70;;
30693;SDS011;17446;48.022;-1.740;2022-08-04T17:23:43;4.28;;;0.88;;
30693;SDS011;17446;48.022;-1.740;2022-08-04T17:26:22;3.95;;;0.80;;
30693;SDS011;17446;48.022;-1.740;2022-08-04T17:28:50;4.97;;;0.60;;
30693;SDS011;17446;48.022;-1.740;2022-08-04T17:31:19;5.00;;;0.90;;
30693;SDS011;17446;48.022;-1.740;2022-08-04T17:33:46;2.28;;;0.88;;
30693;SDS011;17446;48.022;-1.740;2022-08-04T17:36:13;5.97;;;1.00;;
30693;SDS011;17446;48.022;-1.740;2022-08-04T17:38:47;4.10;;;1.05;;
30693;SDS011;17446;48.022;-1.740;2022-08-04T17:41:20;4.65;;;1.05;;
30693;SDS011;17446;48.022;-1.740;2022-08-04T17:43:48;3.03;;;0.55;;
30693;SDS011;17446;48.022;-1.740;2022-08-04T17:52:02;0.98;;;0.47;;
30693;SDS011;17446;48.022;-1.740;2022-08-04T17:56:51;3.17;;;0.70;;
30693;SDS011;17446;48.022;-1.740;2022-08-04T17:59:19;6.60;;;1.10;;
30693;SDS011;17446;48.022;-1.740;2022-08-04T18:01:57;1.92;;;0.90;;
30693;SDS011;17446;48.022;-1.740;2022-08-04T18:07:12;3.80;;;1.05;;
30693;SDS011;17446;48.022;-1.740;2022-08-04T18:09:52;4.15;;;0.60;;
30693;SDS011;17446;48.022;-1.740;2022-08-04T18:12:23;7.80;;;0.90;;
30693;SDS011;17446;48.022;-1.740;2022-08-04T18:15:01;1.70;;;0.50;;
30693;SDS011;17446;48.022;-1.740;2022-08-04T18:17:30;5.25;;;0.80;;
30693;SDS011;17446;48.022;-1.740;2022-08-04T18:19:56;5.40;;;1.10;;
30693;SDS011;17446;48.022;-1.740;2022-08-04T18:22:23;1.35;;;0.73;;
30693;SDS011;17446;48.022;-1.740;2022-08-04T18:24:48;3.05;;;0.75;;
30693;SDS011;17446;48.022;-1.740;2022-08-04T18:27:15;1.92;;;0.65;;
30693;SDS011;17446;48.022;-1.740;2022-08-04T18:29:42;5.90;;;0.85;;
30693;SDS011;17446;48.022;-1.740;2022-08-04T18:32:07;3.33;;;0.88;;
30693;SDS011;17446;48.022;-1.740;2022-08-04T18:34:33;3.70;;;1.27;;
30693;SDS011;17446;48.022;-1.740;2022-08-04T18:36:59;3.17;;;0.93;;
30693;SDS011;17446;48.022;-1.740;2022-08-04T18:39:25;8.35;;;1.23;;
30693;SDS011;17446;48.022;-1.740;2022-08-04T18:41:53;6.18;;;0.98;;
30693;SDS011;17446;48.022;-1.740;2022-08-04T18:44:19;5.28;;;1.30;;
30693;SDS011;17446;48.022;-1.740;2022-08-04T18:46:45;2.42;;;0.80;;
30693;SDS011;17446;48.022;-1.740;2022-08-04T18:49:11;2.97;;;0.90;;
30693;SDS011;17446;48.022;-1.740;2022-08-04T18:51:37;2.10;;;0.95;;
30693;SDS011;17446;48.022;-1.740;2022-08-04T18:54:05;4.80;;;1.00;;
30693;SDS011;17446;48.022;-1.740;2022-08-04T18:56:31;5.25;;;1.40;;
30693;SDS011;17446;48.022;-1.740;2022-08-04T18:59:01;2.95;;;0.90;;
30693;SDS011;17446;48.022;-1.740;2022-08-04T19:01:29;3.70;;;1.23;;
30693;SDS011;17446;48.022;-1.740;2022-08-04T19:03:55;3.38;;;0.75;;
30693;SDS011;17446;48.022;-1.740;2022-08-04T19:06:20;4.05;;;1.23;;
30693;SDS011;17446;48.022;-1.740;2022-08-04T19:08:46;2.65;;;1.02;;
30693;SDS011;17446;48.022;-1.740;2022-08-04T19:11:12;4.40;;;1.48;;
30693;SDS011;17446;48.022;-1.740;2022-08-04T19:13:38;5.18;;;1.08;;
30693;SDS011;17446;48.022;-1.740;2022-08-04T19:16:04;3.00;;;1.05;;
30693;SDS011;17446;48.022;-1.740;2022-08-04T19:18:30;12.30;;;1.83;;
30693;SDS011;17446;48.022;-1.740;2022-08-04T19:20:57;10.52;;;1.63;;
30693;SDS011;17446;48.022;-1.740;2022-08-04T19:23:23;6.55;;;1.38;;
30693;SDS011;17446;48.022;-1.740;2022-08-04T19:25:49;7.53;;;1.55;;
30693;SDS011;17446;48.022;-1.740;2022-08-04T19:28:15;2.65;;;1.27;;
30693;SDS011;17446;48.022;-1.740;2022-08-04T19:30:41;7.65;;;1.42;;
30693;SDS011;17446;48.022;-1.740;2022-08-04T19:33:07;5.15;;;1.40;;
30693;SDS011;17446;48.022;-1.740;2022-08-04T19:35:33;5.22;;;1.80;;
30693;SDS011;17446;48.022;-1.740;2022-08-04T19:37:58;6.38;;;1.10;;
30693;SDS011;17446;48.022;-1.740;2022-08-04T19:40:24;4.95;;;1.70;;
30693;SDS011;17446;48.022;-1.740;2022-08-04T19:42:50;4.00;;;1.38;;
30693;SDS011;17446;48.022;-1.740;2022-08-04T19:45:16;4.47;;;1.42;;
30693;SDS011;17446;48.022;-1.740;2022-08-04T19:47:42;3.83;;;1.23;;
30693;SDS011;17446;48.022;-1.740;2022-08-04T19:50:08;8.68;;;1.30;;
30693;SDS011;17446;48.022;-1.740;2022-08-04T19:52:34;5.35;;;1.52;;
30693;SDS011;17446;48.022;-1.740;2022-08-04T19:55:00;5.35;;;1.27;;
30693;SDS011;17446;48.022;-1.740;2022-08-04T19:57:25;2.33;;;0.90;;
30693;SDS011;17446;48.022;-1.740;2022-08-04T19:59:51;7.78;;;1.08;;